Time;durP1;ratioP1;P1;durP2;ratioP2;P2;SDS_P1;SDS_P2;PMS_P1;PMS_P2;Temp;Humidity;BMP_temperature;BMP_pressure;BME280_temperature;BME280_humidity;BME280_pressure;Samples;Min_cycle;Max_cycle;Signal;HPM_P1;HPM_P2
2024/02/27 00:00:32;;;;;;;;;2.33;0.67;;;;;21.61;41.50;101289.28;6399692;22;52097;-76
2024/02/27 00:02:57;;;;;;;;;1.67;1.67;;;;;21.51;41.60;101281.53;6399290;22;46997;-77
2024/02/27 00:05:24;;;;;;;;;0.67;0.67;;;;;21.61;41.70;101299.88;6398772;22;61770;-77
2024/02/27 00:07:49;;;;;;;;;0.67;0.00;;;;;21.61;41.32;101302.53;6399337;22;45505;-77
2024/02/27 00:10:15;;;;;;;;;1.00;0.67;;;;;21.56;41.95;101295.09;6399246;22;45264;-77
2024/02/27 00:12:40;;;;;;;;;0.00;0.00;;;;;21.60;41.72;101308.81;6399560;22;45623;-77
2024/02/27 00:15:06;;;;;;;;;1.00;1.00;;;;;21.61;41.41;101315.78;6399260;22;51196;-76
2024/02/27 00:17:31;;;;;;;;;2.33;0.00;;;;;21.60;41.21;101314.94;6399450;22;45338;-77
2024/02/27 00:19:57;;;;;;;;;3.00;1.00;;;;;21.60;41.17;101312.28;6399249;22;45294;-77
2024/02/27 00:22:22;;;;;;;;;1.67;0.67;;;;;21.60;41.64;101314.94;6399031;22;46852;-77
2024/02/27 00:24:47;;;;;;;;;2.00;0.67;;;;;21.58;41.65;101311.63;6398363;22;57553;-77
2024/02/27 00:27:13;;;;;;;;;0.00;0.00;;;;;21.51;41.28;101308.00;6399557;22;45284;-77
2024/02/27 00:29:39;;;;;;;;;0.67;0.67;;;;;21.59;41.28;101325.72;6399264;22;45239;-77
2024/02/27 00:32:04;;;;;;;;;0.67;0.00;;;;;21.58;41.38;101331.97;6399618;22;45294;-76
2024/02/27 00:34:30;;;;;;;;;0.33;0.33;;;;;21.58;41.13;101331.97;6398884;22;45527;-76
2024/02/27 00:36:55;;;;;;;;;1.33;1.33;;;;;21.57;41.35;101344.38;6399192;22;45189;-77
2024/02/27 00:39:21;;;;;;;;;0.67;0.67;;;;;21.54;41.37;101336.81;6398852;22;45406;-78
2024/02/27 00:41:48;;;;;;;;;0.00;0.00;;;;;21.57;41.37;101338.28;6399024;22;46056;-77
2024/02/27 00:44:14;;;;;;;;;2.67;0.33;;;;;21.57;40.78;101339.09;6398743;22;45269;-77
2024/02/27 00:46:39;;;;;;;;;1.00;0.67;;;;;21.55;41.29;101334.97;6399402;22;45346;-77
2024/02/27 00:49:05;;;;;;;;;0.00;0.00;;;;;21.55;40.82;101334.97;6399030;22;45386;-76
2024/02/27 00:51:30;;;;;;;;;1.00;1.00;;;;;21.55;41.26;101337.59;6398993;22;49966;-77
2024/02/27 00:53:56;;;;;;;;;0.67;0.67;;;;;21.50;41.31;101333.63;6400340;22;45243;-76
2024/02/27 00:56:21;;;;;;;;;0.67;0.67;;;;;21.54;41.35;101341.25;6400613;22;45290;-77
2024/02/27 00:58:46;;;;;;;;;2.00;0.67;;;;;21.55;40.81;101346.38;6400438;22;45263;-77
2024/02/27 01:01:12;;;;;;;;;0.67;0.67;;;;;21.49;40.76;101342.56;6400893;22;45213;-77
2024/02/27 01:03:37;;;;;;;;;2.33;0.33;;;;;21.47;40.83;101355.16;6400975;22;45236;-77
2024/02/27 01:06:04;;;;;;;;;0.67;0.67;;;;;21.48;40.99;101362.09;6401051;22;45280;-78
2024/02/27 01:08:29;;;;;;;;;0.00;0.00;;;;;21.52;41.36;101379.31;6400670;22;45170;-77
2024/02/27 01:10:55;;;;;;;;;2.33;0.67;;;;;21.53;40.96;101374.84;6399999;22;46899;-77
2024/02/27 01:13:21;;;;;;;;;0.00;0.00;;;;;21.54;41.17;101381.81;6400310;22;45299;-76
2024/02/27 01:15:46;;;;;;;;;0.00;0.00;;;;;21.54;40.67;101388.91;6399307;22;45220;-77
2024/02/27 01:18:12;;;;;;;;;0.67;0.67;;;;;21.51;40.54;101392.72;6400941;22;45364;-77
2024/02/27 01:20:37;;;;;;;;;1.00;1.00;;;;;21.52;41.08;101387.25;6400796;22;45731;-77
2024/02/27 01:23:03;;;;;;;;;0.33;0.33;;;;;21.44;41.07;101378.50;6400392;22;45277;-78
2024/02/27 01:25:28;;;;;;;;;0.00;0.00;;;;;21.41;41.07;101374.34;6400536;22;45265;-76
2024/02/27 01:27:53;;;;;;;;;2.67;1.67;;;;;21.44;40.83;101373.19;6400136;22;57549;-76
2024/02/27 01:30:18;;;;;;;;;0.67;0.67;;;;;21.51;40.93;101404.16;6400704;22;45262;-77
2024/02/27 01:32:45;;;;;;;;;1.00;1.00;;;;;21.52;40.93;101391.72;6373482;22;45386;-76
2024/02/27 01:35:10;;;;;;;;;1.67;1.67;;;;;21.51;40.84;101408.59;6401143;22;45279;-76
2024/02/27 01:37:36;;;;;;;;;0.00;0.00;;;;;21.48;40.77;101395.69;6401106;22;45426;-77
2024/02/27 01:40:01;;;;;;;;;1.00;1.00;;;;;21.51;40.36;101400.66;6399906;22;57677;-78
2024/02/27 01:42:26;;;;;;;;;1.00;1.00;;;;;21.49;40.56;101397.34;6400354;22;45333;-77
2024/02/27 01:44:52;;;;;;;;;1.00;1.00;;;;;21.50;40.40;101412.25;6400681;22;45289;-77
2024/02/27 01:47:19;;;;;;;;;1.33;1.33;;;;;21.50;40.79;101420.19;6400760;22;45384;-76
2024/02/27 01:49:47;;;;;;;;;3.33;1.00;;;;;21.49;40.34;101423.84;6400686;22;45321;-77
2024/02/27 01:52:13;;;;;;;;;2.67;1.00;;;;;21.50;40.44;101428.13;6400329;22;45292;-77
2024/02/27 01:54:42;;;;;;;;;1.33;1.00;;;;;21.49;40.45;101432.56;6400261;22;45573;-76
2024/02/27 01:57:07;;;;;;;;;1.00;1.00;;;;;21.49;40.39;101423.84;6400361;22;45494;-76
2024/02/27 01:59:33;;;;;;;;;1.33;1.33;;;;;21.49;40.48;101431.78;6400498;22;45147;-77
2024/02/27 02:02:01;;;;;;;;;2.00;0.00;;;;;21.50;40.25;101433.41;6400633;22;45424;-77
2024/02/27 02:04:27;;;;;;;;;0.67;0.67;;;;;21.49;40.67;101431.78;6400413;22;45168;-78
2024/02/27 02:06:52;;;;;;;;;0.00;0.00;;;;;21.49;40.80;101431.78;6399819;22;45216;-77
2024/02/27 02:09:18;;;;;;;;;0.00;0.00;;;;;21.47;40.80;101439.88;6399750;22;45332;-77
2024/02/27 02:11:45;;;;;;;;;1.00;1.00;;;;;21.34;40.75;101423.63;6400113;22;45237;-77
2024/02/27 02:14:10;;;;;;;;;0.00;0.00;;;;;21.49;40.47;101447.66;6400760;22;45334;-78
2024/02/27 02:16:36;;;;;;;;;0.00;0.00;;;;;21.50;40.11;101444.00;6400057;22;45461;-76
2024/02/27 02:19:01;;;;;;;;;2.00;0.67;;;;;21.49;40.56;101452.97;6400070;22;46683;-77
2024/02/27 02:21:27;;;;;;;;;1.00;1.00;;;;;21.49;40.46;101456.41;6399811;22;45361;-76
2024/02/27 02:23:55;;;;;;;;;2.00;0.67;;;;;21.48;40.12;101461.88;6401054;22;45357;-77
2024/02/27 02:26:25;;;;;;;;;3.00;1.00;;;;;21.47;40.42;101463.69;6400866;22;45215;-76
2024/02/27 02:28:50;;;;;;;;;0.00;0.00;;;;;21.44;40.16;101465.84;6399864;22;46345;-76
2024/02/27 02:31:15;;;;;;;;;0.00;0.00;;;;;21.46;40.09;101454.09;6400390;22;45338;-76
2024/02/27 02:33:41;;;;;;;;;1.00;1.00;;;;;21.47;40.28;101449.63;6400081;22;45283;-77
2024/02/27 02:36:06;;;;;;;;;1.67;0.00;;;;;21.39;40.36;101453.09;6400163;22;45372;-76
2024/02/27 02:38:32;;;;;;;;;0.00;0.00;;;;;21.48;40.30;101449.47;6400321;22;45308;-77
2024/02/27 02:40:58;;;;;;;;;0.00;0.00;;;;;21.45;40.30;101460.38;6400008;22;45214;-77
2024/02/27 02:43:23;;;;;;;;;0.00;0.00;;;;;21.28;40.09;101422.47;6400622;22;45221;-77
2024/02/27 02:45:48;;;;;;;;;1.00;1.00;;;;;21.45;40.19;101444.50;6399384;22;58871;-77
2024/02/27 02:48:14;;;;;;;;;1.33;0.33;;;;;21.41;40.14;101443.19;6400101;22;46026;-76
2024/02/27 02:50:39;;;;;;;;;0.00;0.00;;;;;21.38;40.23;101446.97;6399997;22;51939;-77
2024/02/27 02:53:04;;;;;;;;;2.00;0.67;;;;;21.40;40.04;101457.38;6399906;22;45275;-76
2024/02/27 02:55:30;;;;;;;;;2.00;1.00;;;;;21.38;40.55;101440.84;6399773;22;48380;-77
2024/02/27 02:57:55;;;;;;;;;0.00;0.00;;;;;21.45;40.22;101463.03;6399903;22;45891;-76
2024/02/27 03:00:21;;;;;;;;;0.00;0.00;;;;;21.46;40.61;101472.63;6400613;22;45237;-77
2024/02/27 03:02:46;;;;;;;;;0.67;0.67;;;;;21.23;40.08;101440.63;6399977;22;45243;-78
2024/02/27 03:05:15;;;;;;;;;0.33;0.33;;;;;21.45;40.32;101478.91;6371426;22;45427;-76
2024/02/27 03:07:40;;;;;;;;;0.67;0.67;;;;;21.45;40.37;101465.69;6399793;22;46209;-77
2024/02/27 03:10:08;;;;;;;;;0.67;0.00;;;;;21.45;39.81;101473.63;6399840;22;45288;-77
2024/02/27 03:12:33;;;;;;;;;1.00;1.00;;;;;21.44;39.90;101463.19;6399904;22;45206;-77
2024/02/27 03:14:59;;;;;;;;;1.33;0.00;;;;;21.44;40.35;101453.44;6399011;22;45209;-77
2024/02/27 03:17:25;;;;;;;;;2.00;0.33;;;;;21.42;40.26;101460.69;6399577;22;46495;-76
2024/02/27 03:19:50;;;;;;;;;1.00;1.00;;;;;21.37;40.11;101455.88;6399351;22;61654;-77
2024/02/27 03:22:15;;;;;;;;;0.00;0.00;;;;;21.45;39.79;101454.25;6400439;22;45186;-77
2024/02/27 03:24:43;;;;;;;;;0.00;0.00;;;;;21.46;40.02;101456.75;6400397;22;45426;-76
2024/02/27 03:27:09;;;;;;;;;1.00;1.00;;;;;21.45;40.16;101457.72;6399618;22;46496;-77
2024/02/27 03:29:34;;;;;;;;;1.67;0.67;;;;;21.40;39.94;101449.44;6400038;22;45261;-76
2024/02/27 03:31:59;;;;;;;;;1.00;1.00;;;;;21.46;39.87;101461.22;6398985;22;57693;-76
2024/02/27 03:34:26;;;;;;;;;2.67;1.00;;;;;21.46;39.95;101455.91;6400180;22;45407;-77
2024/02/27 03:36:51;;;;;;;;;0.00;0.00;;;;;21.38;40.30;101439.03;6398655;22;45682;-76
2024/02/27 03:39:17;;;;;;;;;2.67;0.67;;;;;21.36;40.21;101438.38;6400000;22;45250;-76
2024/02/27 03:41:42;;;;;;;;;0.00;0.00;;;;;21.45;40.25;101455.09;6400133;22;45231;-77
2024/02/27 03:44:07;;;;;;;;;0.00;0.00;;;;;21.45;39.95;101455.09;6399652;22;45335;-76
2024/02/27 03:46:32;;;;;;;;;1.00;1.00;;;;;21.37;40.21;101453.25;6399404;22;45409;-77
2024/02/27 03:48:58;;;;;;;;;2.33;0.67;;;;;21.44;39.95;101460.56;6400180;22;45183;-77
2024/02/27 03:51:23;;;;;;;;;1.33;0.67;;;;;21.35;40.11;101457.03;6400248;22;45332;-76
2024/02/27 03:53:48;;;;;;;;;1.00;1.00;;;;;21.44;40.32;101465.84;6399573;22;45239;-76
2024/02/27 03:56:14;;;;;;;;;1.00;1.00;;;;;21.34;40.09;101464.16;6398962;22;66371;-76
2024/02/27 03:58:39;;;;;;;;;0.00;0.00;;;;;21.37;39.80;101479.72;6399641;22;55365;-76
2024/02/27 04:01:04;;;;;;;;;0.67;0.67;;;;;21.42;39.92;101495.13;6399241;22;45265;-77
2024/02/27 04:03:30;;;;;;;;;0.33;0.33;;;;;21.31;39.86;101476.88;6399653;22;45145;-77
2024/02/27 04:05:55;;;;;;;;;0.67;0.67;;;;;21.43;39.76;101488.84;6399104;22;50110;-77
2024/02/27 04:08:20;;;;;;;;;0.67;0.67;;;;;;;;6399789;22;45275;-77
2024/02/27 04:10:45;;;;;;;;;1.67;0.00;;;;;;;;6400282;22;45199;-76
2024/02/27 04:13:10;;;;;;;;;0.33;0.00;;;;;21.42;39.90;101496.94;6399801;22;45152;-76
2024/02/27 04:15:36;;;;;;;;;0.67;0.00;;;;;21.42;39.88;101515.47;6399243;22;45260;-76
2024/02/27 04:18:03;;;;;;;;;0.00;0.00;;;;;21.40;39.89;101513.81;6399220;22;45303;-77
2024/02/27 04:20:28;;;;;;;;;0.33;0.33;;;;;21.40;39.74;101510.34;6399652;22;45246;-77
2024/02/27 04:22:54;;;;;;;;;0.33;0.33;;;;;21.33;40.24;101519.91;6399786;22;45247;-77
2024/02/27 04:25:19;;;;;;;;;0.00;0.00;;;;;21.42;40.07;101531.38;6399137;22;46877;-76
2024/02/27 04:27:44;;;;;;;;;0.33;0.33;;;;;21.40;39.66;101531.50;6371604;22;45884;-77
2024/02/27 04:30:10;;;;;;;;;1.00;1.00;;;;;21.39;39.76;101546.56;6400296;22;52776;-76
2024/02/27 04:32:36;;;;;;;;;0.00;0.00;;;;;21.42;40.26;101558.66;6401411;22;45391;-77
2024/02/27 04:35:01;;;;;;;;;0.00;0.00;;;;;21.42;39.74;101558.66;6400723;22;45403;-78
2024/02/27 04:37:27;;;;;;;;;0.00;0.00;;;;;21.42;39.64;101563.94;6401256;22;45446;-76
2024/02/27 04:39:53;;;;;;;;;0.33;0.00;;;;;21.40;39.59;101565.91;6401184;22;45293;-77
2024/02/27 04:42:19;;;;;;;;;0.00;0.00;;;;;21.32;39.85;101539.41;6401118;22;45426;-77
2024/02/27 04:44:44;;;;;;;;;0.33;0.33;;;;;21.36;40.00;101551.34;6400442;22;46084;-75
2024/02/27 04:47:10;;;;;;;;;0.33;0.00;;;;;21.42;40.02;101563.94;6400951;22;45258;-75
2024/02/27 04:49:35;;;;;;;;;0.00;0.00;;;;;21.40;39.82;101569.41;6401507;22;45395;-77
2024/02/27 04:52:01;;;;;;;;;0.67;0.67;;;;;21.38;40.02;101568.75;6401121;22;45488;-77
2024/02/27 04:54:26;;;;;;;;;1.00;1.00;;;;;21.38;40.04;101571.38;6399405;22;46146;-76
2024/02/27 04:56:52;;;;;;;;;0.00;0.00;;;;;21.42;39.60;101571.06;6372144;22;45244;-76
2024/02/27 04:59:17;;;;;;;;;3.33;0.67;;;;;21.36;39.67;101561.94;6399613;22;61393;-77
2024/02/27 05:01:50;;;;;;;;;0.00;0.00;;;;;21.29;39.92;101556.44;6399395;22;50838;-76
2024/02/27 05:04:16;;;;;;;;;0.33;0.33;;;;;21.40;39.55;101576.50;6399469;22;45173;-76
2024/02/27 05:06:42;;;;;;;;;0.00;0.00;;;;;21.39;39.89;101569.56;6401092;22;45256;-77
2024/02/27 05:09:07;;;;;;;;;0.33;0.00;;;;;21.40;40.01;101573.88;6383757;22;45324;-77
2024/02/27 05:11:33;;;;;;;;;0.67;0.67;;;;;21.40;39.92;101576.50;6404654;22;45339;-76
2024/02/27 05:13:58;;;;;;;;;1.00;0.67;;;;;21.38;39.67;101567.91;6402072;22;45901;-77
2024/02/27 05:16:24;;;;;;;;;0.00;0.00;;;;;21.31;39.52;101558.94;6402971;22;45291;-77
2024/02/27 05:18:50;;;;;;;;;1.00;1.00;;;;;21.39;39.55;101572.22;6402602;22;45300;-77
2024/02/27 05:21:19;;;;;;;;;2.67;0.33;;;;;21.38;39.60;101568.75;6401219;22;45365;-76
2024/02/27 05:23:44;;;;;;;;;0.33;0.33;;;;;21.38;39.86;101574.03;6400434;22;46364;-77
2024/02/27 05:26:10;;;;;;;;;2.33;0.67;;;;;21.38;39.74;101571.38;6400261;22;45168;-77
2024/02/27 05:28:36;;;;;;;;;1.33;0.00;;;;;21.34;39.73;101572.66;6400304;22;45228;-76
2024/02/27 05:31:02;;;;;;;;;0.33;0.33;;;;;21.38;40.06;101576.69;6400867;22;45259;-76
2024/02/27 05:33:27;;;;;;;;;0.00;0.00;;;;;21.35;39.32;101573.50;6400369;22;46813;-76
2024/02/27 05:35:52;;;;;;;;;0.67;0.67;;;;;21.38;39.73;101571.38;6400387;22;45245;-76
2024/02/27 05:38:18;;;;;;;;;1.33;1.00;;;;;21.39;39.50;101585.47;6400418;22;45224;-77
2024/02/27 05:40:43;;;;;;;;;0.67;0.00;;;;;21.38;39.77;101583.78;6400953;22;45402;-77
2024/02/27 05:43:08;;;;;;;;;0.00;0.00;;;;;21.39;39.45;101583.63;6399860;22;48592;-76
2024/02/27 05:45:35;;;;;;;;;0.00;0.00;;;;;21.39;39.42;101593.41;6400992;22;45280;-77
2024/02/27 05:48:00;;;;;;;;;1.00;0.00;;;;;21.35;39.54;101577.00;6400745;22;45303;-76
2024/02/27 05:50:26;;;;;;;;;0.33;0.00;;;;;21.38;39.84;101578.50;6372307;22;45291;-77
2024/02/27 05:52:51;;;;;;;;;0.33;0.00;;;;;21.28;39.55;101562.72;6399978;22;46191;-77
2024/02/27 05:55:16;;;;;;;;;0.00;0.00;;;;;21.34;39.94;101577.97;6400111;22;45348;-76
2024/02/27 05:57:42;;;;;;;;;3.67;1.00;;;;;21.37;39.45;101576.81;6400286;22;45710;-77
2024/02/27 06:00:08;;;;;;;;;0.00;0.00;;;;;21.25;39.76;101576.28;6400683;22;45870;-77
2024/02/27 06:02:33;;;;;;;;;0.33;0.33;;;;;21.37;39.83;101595.34;6400124;22;47135;-76
2024/02/27 06:04:59;;;;;;;;;0.33;0.00;;;;;21.32;39.65;101589.69;6371730;22;45295;-77
2024/02/27 06:07:24;;;;;;;;;1.67;0.67;;;;;21.36;39.83;101591.06;6400146;22;51707;-77
2024/02/27 06:09:49;;;;;;;;;0.00;0.00;;;;;21.36;39.49;101591.91;6400595;22;45220;-77
2024/02/27 06:12:14;;;;;;;;;0.00;0.00;;;;;21.37;39.74;101600.66;6399309;22;60060;-78
2024/02/27 06:14:40;;;;;;;;;0.00;0.00;;;;;21.27;39.84;101585.72;6371554;22;45571;-77
2024/02/27 06:17:05;;;;;;;;;0.00;0.00;;;;;21.34;39.85;101601.78;6400621;22;45114;-77
2024/02/27 06:19:31;;;;;;;;;0.00;0.00;;;;;21.36;39.75;101614.88;6400820;22;45388;-76
2024/02/27 06:22:11;;;;;;;;;0.33;0.33;;;;;21.36;39.53;101617.53;6399930;22;46946;-77
2024/02/27 06:24:38;;;;;;;;;0.67;0.67;;;;;21.36;39.29;101621.00;6399910;22;45221;-77
2024/02/27 06:27:04;;;;;;;;;1.67;0.33;;;;;21.37;39.64;101624.47;6400146;22;45362;-77
2024/02/27 06:29:29;;;;;;;;;0.67;0.67;;;;;21.37;39.61;101629.75;6400055;22;45147;-77
2024/02/27 06:31:54;;;;;;;;;0.67;0.67;;;;;21.31;39.64;101611.88;6399552;22;65878;-77
2024/02/27 06:34:20;;;;;;;;;0.00;0.00;;;;;21.31;39.42;101625.13;6400453;22;45252;-76
2024/02/27 06:36:45;;;;;;;;;0.00;0.00;;;;;21.38;39.60;101636.72;6400034;22;45148;-76
2024/02/27 06:39:11;;;;;;;;;0.00;0.00;;;;;21.37;39.16;101643.00;6400136;22;45314;-77
2024/02/27 06:41:36;;;;;;;;;0.33;0.33;;;;;21.32;39.38;101632.88;6400205;22;46214;-77
2024/02/27 06:44:01;;;;;;;;;0.67;0.67;;;;;21.38;39.14;101652.63;6399876;22;55973;-76
2024/02/27 06:46:26;;;;;;;;;0.67;0.67;;;;;21.37;39.25;101648.28;6400683;22;45179;-76
2024/02/27 06:48:52;;;;;;;;;0.33;0.33;;;;;21.36;39.30;101651.94;6399913;22;61758;-77
2024/02/27 06:51:17;;;;;;;;;0.00;0.00;;;;;21.33;39.55;101642.50;6399746;22;45927;-76
2024/02/27 06:53:43;;;;;;;;;0.00;0.00;;;;;21.35;39.57;101645.81;6400246;22;45308;-77
2024/02/27 06:56:08;;;;;;;;;0.00;0.00;;;;;21.36;39.25;101655.44;6400191;22;45294;-76
2024/02/27 06:58:33;;;;;;;;;0.00;0.00;;;;;21.36;39.57;101651.94;6399908;22;55091;-77
2024/02/27 07:00:59;;;;;;;;;0.00;0.00;;;;;21.26;39.75;101655.50;6399956;22;47257;-76
2024/02/27 07:03:24;;;;;;;;;0.00;0.00;;;;;21.36;39.46;101673.97;6400371;22;45307;-77
2024/02/27 07:05:49;;;;;;;;;0.00;0.00;;;;;21.34;39.87;101683.03;6400164;22;46221;-76
2024/02/27 07:08:15;;;;;;;;;0.33;0.00;;;;;21.36;39.60;101687.19;6399512;22;46498;-75
2024/02/27 07:10:40;;;;;;;;;0.00;0.00;;;;;21.26;39.52;101681.97;6399392;22;46683;-76
2024/02/27 07:13:06;;;;;;;;;2.00;0.33;;;;;21.35;39.56;101696.09;6399328;22;53514;-79
2024/02/27 07:15:35;;;;;;;;;0.33;0.00;;;;;21.38;39.90;101700.25;6400203;22;45417;-78
2024/02/27 07:18:01;;;;;;;;;0.00;0.00;;;;;21.42;39.43;101700.78;6400004;22;45250;-77
2024/02/27 07:20:27;;;;;;;;;1.00;1.00;;;;;21.33;39.47;101690.16;6399584;22;45998;-79
2024/02/27 07:22:53;;;;;;;;;0.67;0.00;;;;;21.47;39.64;101703.78;6399892;22;45210;-76
2024/02/27 07:25:19;;;;;;;;;0.00;0.00;;;;;21.50;40.03;101706.97;6399083;22;45306;-76
2024/02/27 07:27:47;;;;;;;;;1.00;0.00;;;;;21.55;40.19;101716.25;6399581;22;45287;-76
2024/02/27 07:30:13;;;;;;;;;0.33;0.33;;;;;21.52;40.27;101704.97;6399310;22;47110;-76
2024/02/27 07:32:39;;;;;;;;;0.00;0.00;;;;;21.58;40.04;101715.94;6399567;22;45184;-75
2024/02/27 07:35:05;;;;;;;;;1.33;0.00;;;;;21.66;40.24;101721.28;6399557;22;45536;-75
2024/02/27 07:37:30;;;;;;;;;0.00;0.00;;;;;21.72;39.86;101718.03;6399640;22;45435;-73
2024/02/27 07:39:56;;;;;;;;;1.67;1.00;;;;;21.73;35.15;101724.97;6398703;22;61734;-74
2024/02/27 07:42:21;;;;;;;;;1.00;1.00;;;;;21.21;33.54;101731.88;6399742;22;45137;-75
2024/02/27 07:44:47;;;;;;;;;2.33;0.67;;;;;20.55;33.30;101717.06;6399306;22;59395;-78
2024/02/27 07:47:12;;;;;;;;;0.67;0.67;;;;;20.25;34.12;101738.34;6399645;22;45369;-75
2024/02/27 07:49:45;;;;;;;;;0.67;0.67;;;;;20.27;34.30;101735.56;6400016;22;45254;-76
2024/02/27 07:52:10;;;;;;;;;1.33;0.00;;;;;20.39;34.66;101733.56;6399604;22;45290;-76
2024/02/27 07:54:35;;;;;;;;;1.67;0.67;;;;;20.47;34.63;101724.88;6398828;22;45235;-75
2024/02/27 07:57:01;;;;;;;;;1.00;1.00;;;;;20.81;34.64;101741.94;6383063;22;57124;-76
2024/02/27 07:59:26;;;;;;;;;0.67;0.67;;;;;21.02;34.73;101732.91;6394461;22;45897;-76
2024/02/27 08:01:51;;;;;;;;;0.33;0.00;;;;;21.22;34.65;101730.09;6397549;22;45482;-75
2024/02/27 08:04:17;;;;;;;;;1.00;0.00;;;;;21.50;34.88;101735.25;6397154;22;50713;-75
2024/02/27 08:06:43;;;;;;;;;1.67;0.67;;;;;21.81;34.61;101737.44;6398147;22;45495;-75
2024/02/27 08:09:09;;;;;;;;;3.00;0.33;;;;;22.10;34.10;101726.66;6397180;22;45422;-76
2024/02/27 08:11:34;;;;;;;;;2.00;1.00;;;;;22.78;33.88;101752.41;6397376;22;45286;-75
2024/02/27 08:14:01;;;;;;;;;1.00;1.00;;;;;23.18;33.21;101729.59;6396875;22;45367;-76
2024/02/27 08:16:26;;;;;;;;;0.00;0.00;;;;;23.80;33.22;101734.47;6396554;22;45640;-75
2024/02/27 08:18:52;;;;;;;;;1.00;1.00;;;;;24.46;32.78;101747.69;6367956;22;46209;-75
2024/02/27 08:21:17;;;;;;;;;3.33;0.67;;;;;24.95;32.21;101740.41;6396878;22;45388;-76
2024/02/27 08:23:42;;;;;;;;;0.33;0.00;;;;;25.47;31.87;101753.13;6368279;22;45453;-75
2024/02/27 08:26:09;;;;;;;;;1.67;0.67;;;;;25.84;31.53;101763.94;6396002;22;53975;-74
2024/02/27 08:28:34;;;;;;;;;0.33;0.33;;;;;26.05;31.80;101749.00;6396119;22;48174;-76
2024/02/27 08:31:03;;;;;;;;;1.33;0.33;;;;;26.39;31.33;101757.41;6396365;22;45392;-74
2024/02/27 08:33:32;;;;;;;;;2.67;0.00;;;;;26.74;30.92;101760.28;6367809;22;45435;-74
2024/02/27 08:35:57;;;;;;;;;0.67;0.00;;;;;27.16;30.96;101758.81;6396498;22;45447;-75
2024/02/27 08:38:23;;;;;;;;;0.00;0.00;;;;;27.59;30.20;101765.06;6395711;22;46193;-73
2024/02/27 08:40:48;;;;;;;;;0.00;0.00;;;;;27.95;29.92;101749.84;6396793;22;45305;-76
2024/02/27 08:43:14;;;;;;;;;0.00;0.00;;;;;28.43;29.62;101761.56;6368409;22;45328;-76
2024/02/27 08:45:41;;;;;;;;;1.00;0.00;;;;;28.81;29.31;101762.03;6396183;22;45248;-75
2024/02/27 08:48:07;;;;;;;;;0.67;0.67;;;;;29.10;28.85;101768.06;6396210;22;46166;-73
2024/02/27 08:50:32;;;;;;;;;0.00;0.00;;;;;29.37;28.78;101764.53;6396952;22;45698;-76
2024/02/27 08:52:57;;;;;;;;;0.00;0.00;;;;;29.67;28.55;101769.41;6396054;22;45724;-76
2024/02/27 08:55:25;;;;;;;;;0.00;0.00;;;;;29.77;27.94;101763.63;6396678;22;57905;-75
2024/02/27 08:57:50;;;;;;;;;0.00;0.00;;;;;29.68;28.12;101780.97;6395891;22;46301;-76
2024/02/27 09:00:16;;;;;;;;;0.00;0.00;;;;;29.36;28.25;101797.72;6397059;22;45324;-76
2024/02/27 09:02:43;;;;;;;;;0.33;0.33;;;;;28.86;28.51;101781.00;6396944;22;45377;-76
2024/02/27 09:05:08;;;;;;;;;0.00;0.00;;;;;28.44;28.46;101786.47;6396303;22;45801;-76
2024/02/27 09:07:41;;;;;;;;;0.00;0.00;;;;;27.92;29.41;101783.16;6396931;22;45844;-76
2024/02/27 09:10:08;;;;;;;;;0.33;0.33;;;;;27.58;29.58;101800.84;6396527;22;45458;-76
2024/02/27 09:12:33;;;;;;;;;0.33;0.00;;;;;27.23;29.58;101806.94;6396498;22;45758;-75
2024/02/27 09:14:58;;;;;;;;;1.00;1.00;;;;;26.92;30.27;101801.72;6395754;22;54235;-76
2024/02/27 09:17:24;;;;;;;;;0.33;0.33;;;;;26.65;30.94;101808.63;6395820;22;46875;-75
2024/02/27 09:19:50;;;;;;;;;2.00;0.00;;;;;26.39;31.06;101821.44;6395125;22;63657;-76
2024/02/27 09:22:15;;;;;;;;;0.00;0.00;;;;;26.16;30.82;101812.53;6396852;22;45358;-76
2024/02/27 09:24:40;;;;;;;;;0.00;0.00;;;;;25.91;30.96;101799.50;6396037;22;45280;-75
2024/02/27 09:27:06;;;;;;;;;1.33;0.00;;;;;25.78;31.71;101807.31;6395952;22;46160;-76
2024/02/27 09:29:31;;;;;;;;;1.00;0.00;;;;;25.61;31.91;101799.44;6394381;22;61756;-75
2024/02/27 09:31:56;;;;;;;;;0.00;0.00;;;;;25.42;32.25;101811.44;6368557;22;45378;-76
2024/02/27 09:34:22;;;;;;;;;0.00;0.00;;;;;25.28;32.21;101804.06;6395380;22;45326;-76
2024/02/27 09:36:47;;;;;;;;;1.00;1.00;;;;;25.15;32.03;101804.66;6396770;22;57729;-77
2024/02/27 09:39:12;;;;;;;;;0.00;0.00;;;;;24.98;32.49;101789.78;6396489;22;45293;-76
2024/02/27 09:41:50;;;;;;;;;1.00;0.00;;;;;24.95;32.58;101814.94;6396779;22;45482;-75
2024/02/27 09:44:15;;;;;;;;;1.33;0.00;;;;;24.77;32.95;101796.56;6397294;22;45436;-77
2024/02/27 09:46:42;;;;;;;;;0.00;0.00;;;;;24.71;32.86;101812.25;6395079;22;45407;-75
2024/02/27 09:49:09;;;;;;;;;0.33;0.33;;;;;24.68;33.05;101814.41;6396012;22;45251;-74
2024/02/27 09:51:37;;;;;;;;;0.00;0.00;;;;;24.54;33.03;101810.69;6367923;22;45681;-76
2024/02/27 09:54:04;;;;;;;;;0.00;0.00;;;;;24.51;33.42;101810.00;6367696;22;45650;-75
2024/02/27 09:56:32;;;;;;;;;0.00;0.00;;;;;24.45;33.27;101804.56;6396212;22;46130;-74
2024/02/27 09:58:59;;;;;;;;;0.00;0.00;;;;;24.40;33.49;101794.44;6396025;22;45268;-76
2024/02/27 10:01:28;;;;;;;;;0.00;0.00;;;;;24.34;33.50;101798.63;6396258;22;45241;-75
2024/02/27 10:03:54;;;;;;;;;0.67;0.00;;;;;24.24;33.53;101789.97;6395496;22;45566;-75
2024/02/27 10:06:21;;;;;;;;;1.00;0.00;;;;;24.24;33.63;101805.94;6396213;22;45613;-75
2024/02/27 10:08:52;;;;;;;;;1.00;0.00;;;;;24.18;33.85;101797.66;6396857;22;45358;-75
2024/02/27 10:11:18;;;;;;;;;0.33;0.00;;;;;24.06;34.37;101786.56;6396562;22;45321;-75
2024/02/27 10:13:43;;;;;;;;;0.00;0.00;;;;;24.07;34.34;101795.38;6396704;22;45453;-74
2024/02/27 10:16:10;;;;;;;;;0.00;0.00;;;;;23.99;34.45;101790.91;6395735;22;51465;-75
2024/02/27 10:18:36;;;;;;;;;0.00;0.00;;;;;23.91;34.17;101793.59;6396039;22;45373;-75
2024/02/27 10:21:04;;;;;;;;;1.00;1.00;;;;;23.57;34.45;101740.53;6396370;22;45829;-75
2024/02/27 10:23:29;;;;;;;;;2.00;1.00;;;;;23.60;34.36;101750.78;6396197;22;45500;-75
2024/02/27 10:26:06;;;;;;;;;0.00;0.00;;;;;23.88;34.43;101793.91;6394678;22;55440;-75
2024/02/27 10:28:33;;;;;;;;;2.00;0.00;;;;;23.81;34.43;101791.13;6396189;22;45387;-74
2024/02/27 10:30:59;;;;;;;;;0.00;0.00;;;;;23.81;34.56;101804.41;6368859;22;45391;-74
2024/02/27 10:33:24;;;;;;;;;0.00;0.00;;;;;23.75;34.61;101792.63;6394560;22;51946;-74
2024/02/27 10:35:52;;;;;;;;;0.00;0.00;;;;;23.76;34.45;101804.09;6395207;22;45240;-75
2024/02/27 10:38:21;;;;;;;;;0.67;0.67;;;;;23.64;34.56;101793.78;6396441;22;45359;-74
2024/02/27 10:40:47;;;;;;;;;0.00;0.00;;;;;23.69;34.71;101814.53;6396242;22;45310;-75
2024/02/27 10:43:13;;;;;;;;;2.00;1.00;;;;;23.59;34.82;101796.97;6396729;22;45315;-75
2024/02/27 10:45:42;;;;;;;;;1.00;1.00;;;;;23.63;34.70;101813.38;6396034;22;45957;-74
2024/02/27 10:48:09;;;;;;;;;1.00;0.00;;;;;23.53;35.03;101794.97;6396181;22;45354;-74
2024/02/27 10:50:35;;;;;;;;;1.00;0.67;;;;;23.57;34.96;101809.59;6396706;22;45289;-73
2024/02/27 10:53:04;;;;;;;;;0.00;0.00;;;;;23.54;35.01;101809.06;6395207;22;45288;-75
2024/02/27 10:55:30;;;;;;;;;0.00;0.00;;;;;23.50;35.01;101801.44;6395742;22;46299;-74
2024/02/27 10:57:59;;;;;;;;;1.00;1.00;;;;;23.39;35.38;101799.09;6395349;22;45346;-75
2024/02/27 11:00:27;;;;;;;;;0.00;0.00;;;;;23.43;35.41;101800.41;6396032;22;45261;-73
2024/02/27 11:02:57;;;;;;;;;2.00;0.33;;;;;23.43;35.11;101815.50;6395538;22;45421;-74
2024/02/27 11:05:25;;;;;;;;;0.00;0.00;;;;;23.34;35.44;101801.44;6395744;22;46601;-75
2024/02/27 11:07:52;;;;;;;;;0.00;0.00;;;;;23.36;35.00;101802.91;6396065;22;45310;-75
2024/02/27 11:10:18;;;;;;;;;1.00;1.00;;;;;23.34;35.68;101804.06;6397161;22;45449;-74
2024/02/27 11:12:47;;;;;;;;;2.00;0.33;;;;;23.32;35.17;101806.88;6369001;22;45563;-75
2024/02/27 11:15:15;;;;;;;;;1.00;0.00;;;;;23.29;35.14;101801.91;6396693;22;46963;-75
2024/02/27 11:17:45;;;;;;;;;0.67;0.67;;;;;23.27;35.36;101803.91;6396308;22;45700;-75
2024/02/27 11:20:12;;;;;;;;;1.00;1.00;;;;;23.24;35.40;101801.56;6396201;22;45382;-74